sensor_id;sensor_type;location;lat;lon;timestamp;P1;durP1;ratioP1;P2;durP2;ratioP2
59147;SDS011;44930;52.878;6.168;2023-06-05T00:00:55;9.50;;;7.28;;
59147;SDS011;44930;52.878;6.168;2023-06-05T00:03:20;10.88;;;6.15;;
59147;SDS011;44930;52.878;6.168;2023-06-05T00:05:46;10.20;;;7.60;;
59147;SDS011;44930;52.878;6.168;2023-06-05T00:08:12;10.35;;;7.00;;
59147;SDS011;44930;52.878;6.168;2023-06-05T00:10:37;10.60;;;7.88;;
59147;SDS011;44930;52.878;6.168;2023-06-05T00:13:03;8.95;;;7.75;;
59147;SDS011;44930;52.878;6.168;2023-06-05T00:15:28;10.90;;;7.43;;
59147;SDS011;44930;52.878;6.168;2023-06-05T00:17:56;11.50;;;8.40;;
59147;SDS011;44930;52.878;6.168;2023-06-05T00:20:22;12.00;;;8.00;;
59147;SDS011;44930;52.878;6.168;2023-06-05T00:22:47;10.88;;;7.50;;
59147;SDS011;44930;52.878;6.168;2023-06-05T00:25:13;10.93;;;7.90;;
59147;SDS011;44930;52.878;6.168;2023-06-05T00:27:39;11.40;;;9.20;;
59147;SDS011;44930;52.878;6.168;2023-06-05T00:30:06;11.88;;;7.80;;
59147;SDS011;44930;52.878;6.168;2023-06-05T00:32:33;8.00;;;6.30;;
59147;SDS011;44930;52.878;6.168;2023-06-05T00:34:59;12.13;;;7.57;;
59147;SDS011;44930;52.878;6.168;2023-06-05T00:37:26;7.68;;;6.88;;
59147;SDS011;44930;52.878;6.168;2023-06-05T00:39:52;13.88;;;8.27;;
59147;SDS011;44930;52.878;6.168;2023-06-05T00:42:17;10.15;;;6.72;;
59147;SDS011;44930;52.878;6.168;2023-06-05T00:44:43;8.27;;;6.80;;
59147;SDS011;44930;52.878;6.168;2023-06-05T00:47:08;10.23;;;7.05;;
59147;SDS011;44930;52.878;6.168;2023-06-05T00:49:34;11.80;;;7.60;;
59147;SDS011;44930;52.878;6.168;2023-06-05T00:52:00;10.90;;;7.93;;
59147;SDS011;44930;52.878;6.168;2023-06-05T00:54:26;11.88;;;6.85;;
59147;SDS011;44930;52.878;6.168;2023-06-05T00:56:53;10.48;;;7.53;;
59147;SDS011;44930;52.878;6.168;2023-06-05T00:59:19;11.65;;;7.95;;
59147;SDS011;44930;52.878;6.168;2023-06-05T01:01:45;10.75;;;7.85;;
59147;SDS011;44930;52.878;6.168;2023-06-05T01:04:12;10.75;;;7.93;;
59147;SDS011;44930;52.878;6.168;2023-06-05T01:06:38;10.45;;;8.00;;
59147;SDS011;44930;52.878;6.168;2023-06-05T01:09:06;13.98;;;8.38;;
59147;SDS011;44930;52.878;6.168;2023-06-05T01:14:14;12.32;;;8.55;;
59147;SDS011;44930;52.878;6.168;2023-06-05T01:16:44;11.63;;;7.95;;
59147;SDS011;44930;52.878;6.168;2023-06-05T01:19:15;10.57;;;8.10;;
59147;SDS011;44930;52.878;6.168;2023-06-05T01:21:41;9.35;;;7.80;;
59147;SDS011;44930;52.878;6.168;2023-06-05T01:24:07;9.95;;;6.93;;
59147;SDS011;44930;52.878;6.168;2023-06-05T01:26:43;11.38;;;8.35;;
59147;SDS011;44930;52.878;6.168;2023-06-05T01:29:17;11.20;;;8.75;;
59147;SDS011;44930;52.878;6.168;2023-06-05T01:31:52;10.35;;;8.40;;
59147;SDS011;44930;52.878;6.168;2023-06-05T01:34:21;11.77;;;8.40;;
59147;SDS011;44930;52.878;6.168;2023-06-05T01:36:49;10.55;;;8.80;;
59147;SDS011;44930;52.878;6.168;2023-06-05T01:39:16;13.63;;;8.30;;
59147;SDS011;44930;52.878;6.168;2023-06-05T01:41:43;11.02;;;8.48;;
59147;SDS011;44930;52.878;6.168;2023-06-05T01:44:09;9.90;;;7.78;;
59147;SDS011;44930;52.878;6.168;2023-06-05T01:46:37;11.35;;;7.97;;
59147;SDS011;44930;52.878;6.168;2023-06-05T01:49:03;10.00;;;8.50;;
59147;SDS011;44930;52.878;6.168;2023-06-05T01:51:30;10.20;;;7.43;;
59147;SDS011;44930;52.878;6.168;2023-06-05T01:53:56;9.55;;;7.78;;
59147;SDS011;44930;52.878;6.168;2023-06-05T01:56:22;9.70;;;7.90;;
59147;SDS011;44930;52.878;6.168;2023-06-05T01:58:49;10.25;;;8.88;;
59147;SDS011;44930;52.878;6.168;2023-06-05T02:01:14;11.55;;;8.90;;
59147;SDS011;44930;52.878;6.168;2023-06-05T02:03:44;12.65;;;8.32;;
59147;SDS011;44930;52.878;6.168;2023-06-05T02:06:13;10.32;;;8.27;;
59147;SDS011;44930;52.878;6.168;2023-06-05T02:08:40;12.63;;;8.95;;
59147;SDS011;44930;52.878;6.168;2023-06-05T02:11:06;13.30;;;9.75;;
59147;SDS011;44930;52.878;6.168;2023-06-05T02:13:39;13.93;;;9.40;;
59147;SDS011;44930;52.878;6.168;2023-06-05T02:16:07;13.82;;;10.15;;
59147;SDS011;44930;52.878;6.168;2023-06-05T02:18:35;13.63;;;9.43;;
59147;SDS011;44930;52.878;6.168;2023-06-05T02:21:02;13.93;;;9.70;;
59147;SDS011;44930;52.878;6.168;2023-06-05T02:23:28;18.55;;;9.98;;
59147;SDS011;44930;52.878;6.168;2023-06-05T02:25:54;13.45;;;10.10;;
59147;SDS011;44930;52.878;6.168;2023-06-05T02:28:20;12.02;;;9.95;;
59147;SDS011;44930;52.878;6.168;2023-06-05T02:30:46;12.63;;;8.75;;
59147;SDS011;44930;52.878;6.168;2023-06-05T02:33:12;12.65;;;10.38;;
59147;SDS011;44930;52.878;6.168;2023-06-05T02:35:39;13.50;;;9.40;;
59147;SDS011;44930;52.878;6.168;2023-06-05T02:38:06;14.00;;;9.23;;
59147;SDS011;44930;52.878;6.168;2023-06-05T02:40:32;14.55;;;9.60;;
59147;SDS011;44930;52.878;6.168;2023-06-05T02:42:58;15.48;;;9.98;;
59147;SDS011;44930;52.878;6.168;2023-06-05T02:45:24;15.05;;;10.07;;
59147;SDS011;44930;52.878;6.168;2023-06-05T02:47:49;12.40;;;9.63;;
59147;SDS011;44930;52.878;6.168;2023-06-05T02:50:15;13.43;;;9.93;;
59147;SDS011;44930;52.878;6.168;2023-06-05T02:52:40;11.95;;;9.25;;
59147;SDS011;44930;52.878;6.168;2023-06-05T02:55:06;13.57;;;10.25;;
59147;SDS011;44930;52.878;6.168;2023-06-05T02:57:33;14.25;;;10.07;;
59147;SDS011;44930;52.878;6.168;2023-06-05T03:00:06;15.25;;;10.73;;
59147;SDS011;44930;52.878;6.168;2023-06-05T03:02:33;14.52;;;10.02;;
59147;SDS011;44930;52.878;6.168;2023-06-05T03:05:01;11.95;;;8.88;;
59147;SDS011;44930;52.878;6.168;2023-06-05T03:07:28;13.52;;;10.15;;
59147;SDS011;44930;52.878;6.168;2023-06-05T03:09:54;15.43;;;10.05;;
59147;SDS011;44930;52.878;6.168;2023-06-05T03:12:20;12.40;;;9.63;;
59147;SDS011;44930;52.878;6.168;2023-06-05T03:14:46;13.27;;;9.65;;
59147;SDS011;44930;52.878;6.168;2023-06-05T03:17:11;13.00;;;9.60;;
59147;SDS011;44930;52.878;6.168;2023-06-05T03:19:37;15.73;;;11.13;;
59147;SDS011;44930;52.878;6.168;2023-06-05T03:22:03;15.95;;;10.35;;
59147;SDS011;44930;52.878;6.168;2023-06-05T03:24:29;13.73;;;10.23;;
59147;SDS011;44930;52.878;6.168;2023-06-05T03:26:54;12.57;;;9.55;;
59147;SDS011;44930;52.878;6.168;2023-06-05T03:29:20;15.40;;;11.32;;
59147;SDS011;44930;52.878;6.168;2023-06-05T03:31:45;14.48;;;10.45;;
59147;SDS011;44930;52.878;6.168;2023-06-05T03:34:11;14.88;;;10.02;;
59147;SDS011;44930;52.878;6.168;2023-06-05T03:36:37;14.82;;;10.13;;
59147;SDS011;44930;52.878;6.168;2023-06-05T03:39:04;13.88;;;10.48;;
59147;SDS011;44930;52.878;6.168;2023-06-05T03:41:30;14.27;;;10.45;;
59147;SDS011;44930;52.878;6.168;2023-06-05T03:43:56;15.10;;;10.48;;
59147;SDS011;44930;52.878;6.168;2023-06-05T03:46:22;13.57;;;10.02;;
59147;SDS011;44930;52.878;6.168;2023-06-05T03:48:48;13.07;;;9.48;;
59147;SDS011;44930;52.878;6.168;2023-06-05T03:51:15;15.27;;;10.57;;
59147;SDS011;44930;52.878;6.168;2023-06-05T03:53:44;15.35;;;10.48;;
59147;SDS011;44930;52.878;6.168;2023-06-05T03:56:10;14.45;;;10.15;;
59147;SDS011;44930;52.878;6.168;2023-06-05T03:58:40;14.48;;;10.27;;
59147;SDS011;44930;52.878;6.168;2023-06-05T04:01:06;15.93;;;10.25;;
59147;SDS011;44930;52.878;6.168;2023-06-05T04:03:32;14.18;;;11.00;;
59147;SDS011;44930;52.878;6.168;2023-06-05T04:05:59;13.98;;;10.30;;
59147;SDS011;44930;52.878;6.168;2023-06-05T04:08:25;24.92;;;11.27;;
59147;SDS011;44930;52.878;6.168;2023-06-05T04:10:52;22.63;;;11.52;;
59147;SDS011;44930;52.878;6.168;2023-06-05T04:13:17;24.13;;;10.30;;
59147;SDS011;44930;52.878;6.168;2023-06-05T04:15:43;14.93;;;10.63;;
59147;SDS011;44930;52.878;6.168;2023-06-05T04:18:09;18.83;;;11.05;;
59147;SDS011;44930;52.878;6.168;2023-06-05T04:20:35;17.17;;;11.02;;
59147;SDS011;44930;52.878;6.168;2023-06-05T04:23:00;15.13;;;10.90;;
59147;SDS011;44930;52.878;6.168;2023-06-05T04:25:26;13.98;;;10.55;;
59147;SDS011;44930;52.878;6.168;2023-06-05T04:27:54;17.50;;;11.05;;
59147;SDS011;44930;52.878;6.168;2023-06-05T04:30:20;16.27;;;11.50;;
59147;SDS011;44930;52.878;6.168;2023-06-05T04:32:46;16.27;;;11.30;;
59147;SDS011;44930;52.878;6.168;2023-06-05T04:35:19;16.65;;;11.68;;
59147;SDS011;44930;52.878;6.168;2023-06-05T04:37:45;14.57;;;10.93;;
59147;SDS011;44930;52.878;6.168;2023-06-05T04:40:11;17.63;;;11.65;;
59147;SDS011;44930;52.878;6.168;2023-06-05T04:42:37;17.33;;;10.80;;
59147;SDS011;44930;52.878;6.168;2023-06-05T04:45:03;18.17;;;12.07;;
59147;SDS011;44930;52.878;6.168;2023-06-05T04:47:31;15.55;;;11.13;;
59147;SDS011;44930;52.878;6.168;2023-06-05T04:50:00;17.60;;;12.13;;
59147;SDS011;44930;52.878;6.168;2023-06-05T04:52:28;13.85;;;10.18;;
59147;SDS011;44930;52.878;6.168;2023-06-05T04:54:58;15.90;;;10.82;;
59147;SDS011;44930;52.878;6.168;2023-06-05T04:57:26;17.00;;;11.75;;
59147;SDS011;44930;52.878;6.168;2023-06-05T04:59:52;16.25;;;11.35;;
59147;SDS011;44930;52.878;6.168;2023-06-05T05:02:18;14.60;;;12.27;;
59147;SDS011;44930;52.878;6.168;2023-06-05T05:04:44;13.93;;;10.93;;
59147;SDS011;44930;52.878;6.168;2023-06-05T05:07:10;14.02;;;10.90;;
59147;SDS011;44930;52.878;6.168;2023-06-05T05:09:40;14.25;;;10.48;;
59147;SDS011;44930;52.878;6.168;2023-06-05T05:12:07;16.13;;;11.43;;
59147;SDS011;44930;52.878;6.168;2023-06-05T05:14:33;16.60;;;12.27;;
59147;SDS011;44930;52.878;6.168;2023-06-05T05:16:58;13.95;;;11.32;;
59147;SDS011;44930;52.878;6.168;2023-06-05T05:19:26;14.32;;;11.65;;
59147;SDS011;44930;52.878;6.168;2023-06-05T05:21:52;12.63;;;10.63;;
59147;SDS011;44930;52.878;6.168;2023-06-05T05:24:17;14.93;;;11.70;;
59147;SDS011;44930;52.878;6.168;2023-06-05T05:26:43;13.07;;;10.30;;
59147;SDS011;44930;52.878;6.168;2023-06-05T05:29:08;16.23;;;11.52;;
59147;SDS011;44930;52.878;6.168;2023-06-05T05:31:34;15.25;;;10.38;;
59147;SDS011;44930;52.878;6.168;2023-06-05T05:34:00;15.55;;;11.27;;
59147;SDS011;44930;52.878;6.168;2023-06-05T05:36:26;12.90;;;10.35;;
59147;SDS011;44930;52.878;6.168;2023-06-05T05:38:52;12.43;;;9.20;;
59147;SDS011;44930;52.878;6.168;2023-06-05T05:41:19;12.65;;;9.45;;
59147;SDS011;44930;52.878;6.168;2023-06-05T05:43:46;13.48;;;9.23;;
59147;SDS011;44930;52.878;6.168;2023-06-05T05:46:12;14.90;;;8.80;;
59147;SDS011;44930;52.878;6.168;2023-06-05T05:48:37;14.15;;;9.30;;
59147;SDS011;44930;52.878;6.168;2023-06-05T05:51:04;15.13;;;8.93;;
59147;SDS011;44930;52.878;6.168;2023-06-05T05:53:31;10.18;;;7.75;;
59147;SDS011;44930;52.878;6.168;2023-06-05T05:55:56;11.82;;;8.02;;
59147;SDS011;44930;52.878;6.168;2023-06-05T05:58:22;9.63;;;7.03;;
59147;SDS011;44930;52.878;6.168;2023-06-05T06:00:48;10.52;;;7.45;;
59147;SDS011;44930;52.878;6.168;2023-06-05T06:03:14;8.50;;;5.75;;
59147;SDS011;44930;52.878;6.168;2023-06-05T06:05:40;6.65;;;5.38;;
59147;SDS011;44930;52.878;6.168;2023-06-05T06:08:06;7.82;;;4.72;;
59147;SDS011;44930;52.878;6.168;2023-06-05T06:10:32;9.40;;;4.78;;
59147;SDS011;44930;52.878;6.168;2023-06-05T06:12:58;7.30;;;5.40;;
59147;SDS011;44930;52.878;6.168;2023-06-05T06:15:24;8.05;;;4.97;;
59147;SDS011;44930;52.878;6.168;2023-06-05T06:17:50;6.93;;;4.90;;
59147;SDS011;44930;52.878;6.168;2023-06-05T06:20:15;6.45;;;4.60;;
59147;SDS011;44930;52.878;6.168;2023-06-05T06:22:41;6.30;;;4.20;;
59147;SDS011;44930;52.878;6.168;2023-06-05T06:25:08;6.80;;;4.78;;
59147;SDS011;44930;52.878;6.168;2023-06-05T06:27:37;6.43;;;4.25;;
59147;SDS011;44930;52.878;6.168;2023-06-05T06:30:03;5.35;;;4.65;;
59147;SDS011;44930;52.878;6.168;2023-06-05T06:32:30;5.55;;;4.25;;
59147;SDS011;44930;52.878;6.168;2023-06-05T06:34:55;5.63;;;3.88;;
59147;SDS011;44930;52.878;6.168;2023-06-05T06:37:21;6.70;;;4.28;;
59147;SDS011;44930;52.878;6.168;2023-06-05T06:39:47;6.30;;;3.80;;
59147;SDS011;44930;52.878;6.168;2023-06-05T06:42:13;9.18;;;5.15;;
59147;SDS011;44930;52.878;6.168;2023-06-05T06:44:39;6.55;;;3.60;;
59147;SDS011;44930;52.878;6.168;2023-06-05T06:47:05;4.38;;;3.50;;
59147;SDS011;44930;52.878;6.168;2023-06-05T06:49:31;5.68;;;3.63;;
59147;SDS011;44930;52.878;6.168;2023-06-05T06:51:58;9.43;;;3.90;;
59147;SDS011;44930;52.878;6.168;2023-06-05T06:54:23;10.70;;;3.05;;
59147;SDS011;44930;52.878;6.168;2023-06-05T06:56:51;7.97;;;3.47;;
59147;SDS011;44930;52.878;6.168;2023-06-05T06:59:16;8.90;;;3.42;;
59147;SDS011;44930;52.878;6.168;2023-06-05T07:01:43;8.98;;;4.40;;
59147;SDS011;44930;52.878;6.168;2023-06-05T07:04:13;4.50;;;3.55;;
59147;SDS011;44930;52.878;6.168;2023-06-05T07:06:45;6.88;;;3.40;;
59147;SDS011;44930;52.878;6.168;2023-06-05T07:09:11;6.15;;;3.90;;
59147;SDS011;44930;52.878;6.168;2023-06-05T07:11:37;8.25;;;3.75;;
59147;SDS011;44930;52.878;6.168;2023-06-05T07:14:03;12.45;;;3.38;;
59147;SDS011;44930;52.878;6.168;2023-06-05T07:16:28;5.57;;;3.45;;
59147;SDS011;44930;52.878;6.168;2023-06-05T07:18:54;5.18;;;3.55;;
59147;SDS011;44930;52.878;6.168;2023-06-05T07:21:20;5.40;;;3.70;;
59147;SDS011;44930;52.878;6.168;2023-06-05T07:23:49;12.38;;;3.38;;
59147;SDS011;44930;52.878;6.168;2023-06-05T07:26:18;6.05;;;3.30;;
59147;SDS011;44930;52.878;6.168;2023-06-05T07:28:45;4.32;;;2.95;;
59147;SDS011;44930;52.878;6.168;2023-06-05T07:31:12;6.00;;;3.60;;
59147;SDS011;44930;52.878;6.168;2023-06-05T07:33:38;6.00;;;3.28;;
59147;SDS011;44930;52.878;6.168;2023-06-05T07:36:04;4.20;;;3.20;;
59147;SDS011;44930;52.878;6.168;2023-06-05T07:38:30;17.67;;;4.63;;
59147;SDS011;44930;52.878;6.168;2023-06-05T07:40:55;4.60;;;3.50;;
59147;SDS011;44930;52.878;6.168;2023-06-05T07:43:26;4.95;;;2.80;;
59147;SDS011;44930;52.878;6.168;2023-06-05T07:45:52;3.78;;;2.97;;
59147;SDS011;44930;52.878;6.168;2023-06-05T07:48:18;6.80;;;3.25;;
59147;SDS011;44930;52.878;6.168;2023-06-05T07:50:44;4.93;;;3.05;;
59147;SDS011;44930;52.878;6.168;2023-06-05T07:53:10;12.63;;;4.18;;
59147;SDS011;44930;52.878;6.168;2023-06-05T07:55:36;4.75;;;3.80;;
59147;SDS011;44930;52.878;6.168;2023-06-05T07:58:01;5.93;;;3.50;;
59147;SDS011;44930;52.878;6.168;2023-06-05T08:00:27;9.05;;;3.50;;
59147;SDS011;44930;52.878;6.168;2023-06-05T08:02:53;5.93;;;3.53;;
59147;SDS011;44930;52.878;6.168;2023-06-05T08:05:18;5.40;;;3.42;;
59147;SDS011;44930;52.878;6.168;2023-06-05T08:07:45;7.18;;;3.00;;
59147;SDS011;44930;52.878;6.168;2023-06-05T08:10:11;5.43;;;3.17;;
59147;SDS011;44930;52.878;6.168;2023-06-05T08:12:37;5.93;;;3.28;;
59147;SDS011;44930;52.878;6.168;2023-06-05T08:15:03;5.40;;;3.50;;
59147;SDS011;44930;52.878;6.168;2023-06-05T08:17:30;4.88;;;3.35;;
59147;SDS011;44930;52.878;6.168;2023-06-05T08:19:56;6.50;;;3.67;;
59147;SDS011;44930;52.878;6.168;2023-06-05T08:22:21;6.60;;;3.58;;
59147;SDS011;44930;52.878;6.168;2023-06-05T08:24:47;4.30;;;2.67;;
59147;SDS011;44930;52.878;6.168;2023-06-05T08:27:15;3.92;;;3.33;;
59147;SDS011;44930;52.878;6.168;2023-06-05T08:29:42;4.75;;;3.40;;
59147;SDS011;44930;52.878;6.168;2023-06-05T08:32:07;8.10;;;3.45;;
59147;SDS011;44930;52.878;6.168;2023-06-05T08:34:34;6.00;;;3.70;;
59147;SDS011;44930;52.878;6.168;2023-06-05T08:37:00;6.35;;;3.65;;
59147;SDS011;44930;52.878;6.168;2023-06-05T08:39:26;7.65;;;3.83;;
59147;SDS011;44930;52.878;6.168;2023-06-05T08:41:56;4.38;;;3.45;;
59147;SDS011;44930;52.878;6.168;2023-06-05T08:44:25;5.75;;;3.88;;
59147;SDS011;44930;52.878;6.168;2023-06-05T08:46:52;4.63;;;3.45;;
59147;SDS011;44930;52.878;6.168;2023-06-05T08:49:24;4.45;;;3.35;;
59147;SDS011;44930;52.878;6.168;2023-06-05T08:51:54;7.80;;;3.85;;
59147;SDS011;44930;52.878;6.168;2023-06-05T08:54:25;8.35;;;3.63;;
59147;SDS011;44930;52.878;6.168;2023-06-05T08:56:51;5.68;;;3.88;;
59147;SDS011;44930;52.878;6.168;2023-06-05T08:59:18;5.15;;;3.30;;
59147;SDS011;44930;52.878;6.168;2023-06-05T09:01:48;5.32;;;3.67;;
59147;SDS011;44930;52.878;6.168;2023-06-05T09:04:14;5.18;;;4.00;;
59147;SDS011;44930;52.878;6.168;2023-06-05T09:06:44;4.63;;;3.70;;
59147;SDS011;44930;52.878;6.168;2023-06-05T09:09:11;5.15;;;3.80;;
59147;SDS011;44930;52.878;6.168;2023-06-05T09:11:39;7.68;;;4.07;;
59147;SDS011;44930;52.878;6.168;2023-06-05T09:14:04;7.60;;;4.07;;
59147;SDS011;44930;52.878;6.168;2023-06-05T09:16:37;7.80;;;4.15;;
59147;SDS011;44930;52.878;6.168;2023-06-05T09:19:10;5.18;;;3.72;;
59147;SDS011;44930;52.878;6.168;2023-06-05T09:21:36;7.50;;;4.05;;
59147;SDS011;44930;52.878;6.168;2023-06-05T09:24:12;5.07;;;3.50;;
59147;SDS011;44930;52.878;6.168;2023-06-05T09:29:23;6.15;;;4.40;;
59147;SDS011;44930;52.878;6.168;2023-06-05T09:31:52;6.30;;;4.07;;
59147;SDS011;44930;52.878;6.168;2023-06-05T09:34:29;7.97;;;3.90;;
59147;SDS011;44930;52.878;6.168;2023-06-05T09:36:59;6.90;;;4.20;;
59147;SDS011;44930;52.878;6.168;2023-06-05T09:39:25;5.43;;;3.85;;
59147;SDS011;44930;52.878;6.168;2023-06-05T09:41:53;5.22;;;4.10;;
59147;SDS011;44930;52.878;6.168;2023-06-05T09:44:20;5.82;;;4.15;;
59147;SDS011;44930;52.878;6.168;2023-06-05T09:46:49;5.75;;;3.78;;
59147;SDS011;44930;52.878;6.168;2023-06-05T09:49:15;5.78;;;3.80;;
59147;SDS011;44930;52.878;6.168;2023-06-05T09:51:44;6.15;;;3.60;;
59147;SDS011;44930;52.878;6.168;2023-06-05T09:54:11;4.55;;;3.65;;
59147;SDS011;44930;52.878;6.168;2023-06-05T09:56:38;4.43;;;3.53;;
59147;SDS011;44930;52.878;6.168;2023-06-05T09:59:08;4.85;;;3.90;;
59147;SDS011;44930;52.878;6.168;2023-06-05T10:01:37;5.68;;;3.80;;
59147;SDS011;44930;52.878;6.168;2023-06-05T10:04:06;5.10;;;3.85;;
59147;SDS011;44930;52.878;6.168;2023-06-05T10:06:33;5.75;;;3.70;;
59147;SDS011;44930;52.878;6.168;2023-06-05T10:09:02;6.68;;;4.05;;
59147;SDS011;44930;52.878;6.168;2023-06-05T10:11:28;6.38;;;4.20;;
59147;SDS011;44930;52.878;6.168;2023-06-05T10:13:54;6.57;;;4.25;;
59147;SDS011;44930;52.878;6.168;2023-06-05T10:16:25;4.90;;;4.05;;
59147;SDS011;44930;52.878;6.168;2023-06-05T10:18:52;4.85;;;3.58;;
59147;SDS011;44930;52.878;6.168;2023-06-05T10:21:20;6.22;;;3.70;;
59147;SDS011;44930;52.878;6.168;2023-06-05T10:23:47;8.35;;;4.97;;
59147;SDS011;44930;52.878;6.168;2023-06-05T10:26:21;6.63;;;4.75;;
59147;SDS011;44930;52.878;6.168;2023-06-05T10:29:15;5.85;;;4.07;;
59147;SDS011;44930;52.878;6.168;2023-06-05T10:31:58;5.45;;;4.30;;
59147;SDS011;44930;52.878;6.168;2023-06-05T10:34:44;6.65;;;4.40;;
59147;SDS011;44930;52.878;6.168;2023-06-05T10:37:24;6.85;;;4.13;;
59147;SDS011;44930;52.878;6.168;2023-06-05T10:39:57;5.85;;;4.28;;
59147;SDS011;44930;52.878;6.168;2023-06-05T10:42:25;7.68;;;4.25;;
59147;SDS011;44930;52.878;6.168;2023-06-05T10:44:52;8.32;;;4.32;;
59147;SDS011;44930;52.878;6.168;2023-06-05T10:47:48;6.40;;;4.13;;
59147;SDS011;44930;52.878;6.168;2023-06-05T10:52:44;5.63;;;4.32;;
59147;SDS011;44930;52.878;6.168;2023-06-05T10:55:10;5.18;;;4.47;;
59147;SDS011;44930;52.878;6.168;2023-06-05T11:00:33;5.30;;;3.85;;
59147;SDS011;44930;52.878;6.168;2023-06-05T11:02:59;4.53;;;3.90;;
59147;SDS011;44930;52.878;6.168;2023-06-05T11:05:25;6.63;;;4.22;;
59147;SDS011;44930;52.878;6.168;2023-06-05T11:16:34;6.00;;;3.58;;
59147;SDS011;44930;52.878;6.168;2023-06-05T11:24:35;8.40;;;5.28;;
59147;SDS011;44930;52.878;6.168;2023-06-05T11:27:05;5.03;;;3.92;;
59147;SDS011;44930;52.878;6.168;2023-06-05T11:29:34;5.00;;;3.42;;
59147;SDS011;44930;52.878;6.168;2023-06-05T11:31:59;5.03;;;3.55;;
59147;SDS011;44930;52.878;6.168;2023-06-05T11:34:35;5.53;;;4.22;;
59147;SDS011;44930;52.878;6.168;2023-06-05T11:37:17;4.95;;;3.50;;
59147;SDS011;44930;52.878;6.168;2023-06-05T11:39:46;6.65;;;3.72;;
59147;SDS011;44930;52.878;6.168;2023-06-05T11:42:14;6.95;;;3.80;;
59147;SDS011;44930;52.878;6.168;2023-06-05T11:44:47;6.47;;;4.03;;
59147;SDS011;44930;52.878;6.168;2023-06-05T11:47:26;5.28;;;3.65;;
59147;SDS011;44930;52.878;6.168;2023-06-05T11:50:07;6.43;;;3.42;;
59147;SDS011;44930;52.878;6.168;2023-06-05T11:52:37;4.30;;;3.38;;
59147;SDS011;44930;52.878;6.168;2023-06-05T11:55:12;6.63;;;3.70;;
59147;SDS011;44930;52.878;6.168;2023-06-05T11:57:45;6.13;;;3.88;;
59147;SDS011;44930;52.878;6.168;2023-06-05T12:00:12;5.07;;;3.67;;
59147;SDS011;44930;52.878;6.168;2023-06-05T12:02:38;4.28;;;3.50;;
59147;SDS011;44930;52.878;6.168;2023-06-05T12:05:06;7.85;;;3.97;;
59147;SDS011;44930;52.878;6.168;2023-06-05T12:07:33;4.45;;;3.40;;
59147;SDS011;44930;52.878;6.168;2023-06-05T12:10:05;5.95;;;3.40;;
59147;SDS011;44930;52.878;6.168;2023-06-05T12:12:33;4.53;;;3.17;;
59147;SDS011;44930;52.878;6.168;2023-06-05T12:15:20;5.05;;;4.18;;
59147;SDS011;44930;52.878;6.168;2023-06-05T12:17:52;6.75;;;4.28;;
59147;SDS011;44930;52.878;6.168;2023-06-05T12:20:20;5.35;;;3.95;;
59147;SDS011;44930;52.878;6.168;2023-06-05T12:22:46;5.45;;;3.85;;
59147;SDS011;44930;52.878;6.168;2023-06-05T12:25:19;5.80;;;4.32;;
59147;SDS011;44930;52.878;6.168;2023-06-05T12:27:44;6.30;;;3.40;;
59147;SDS011;44930;52.878;6.168;2023-06-05T12:30:11;4.68;;;3.83;;
59147;SDS011;44930;52.878;6.168;2023-06-05T12:32:37;7.00;;;4.80;;
59147;SDS011;44930;52.878;6.168;2023-06-05T12:35:17;5.28;;;4.15;;
59147;SDS011;44930;52.878;6.168;2023-06-05T12:37:47;7.65;;;4.30;;
59147;SDS011;44930;52.878;6.168;2023-06-05T12:40:13;6.10;;;3.90;;
59147;SDS011;44930;52.878;6.168;2023-06-05T12:42:40;4.78;;;3.83;;
59147;SDS011;44930;52.878;6.168;2023-06-05T12:45:08;6.90;;;4.05;;
59147;SDS011;44930;52.878;6.168;2023-06-05T12:47:35;6.07;;;3.97;;
59147;SDS011;44930;52.878;6.168;2023-06-05T12:50:02;4.53;;;4.03;;
59147;SDS011;44930;52.878;6.168;2023-06-05T12:52:29;5.68;;;3.65;;
59147;SDS011;44930;52.878;6.168;2023-06-05T12:54:55;5.57;;;3.78;;
59147;SDS011;44930;52.878;6.168;2023-06-05T12:57:24;6.13;;;3.53;;
59147;SDS011;44930;52.878;6.168;2023-06-05T12:59:51;5.80;;;3.85;;
59147;SDS011;44930;52.878;6.168;2023-06-05T13:02:18;4.70;;;3.35;;
59147;SDS011;44930;52.878;6.168;2023-06-05T13:04:44;5.55;;;3.63;;
59147;SDS011;44930;52.878;6.168;2023-06-05T13:07:10;5.80;;;3.47;;
59147;SDS011;44930;52.878;6.168;2023-06-05T13:09:36;4.97;;;3.40;;
59147;SDS011;44930;52.878;6.168;2023-06-05T13:12:02;5.10;;;3.47;;
59147;SDS011;44930;52.878;6.168;2023-06-05T13:14:28;4.90;;;4.10;;
59147;SDS011;44930;52.878;6.168;2023-06-05T13:16:55;4.45;;;3.53;;
59147;SDS011;44930;52.878;6.168;2023-06-05T13:19:22;7.32;;;3.40;;
59147;SDS011;44930;52.878;6.168;2023-06-05T13:21:47;6.65;;;3.72;;
59147;SDS011;44930;52.878;6.168;2023-06-05T13:24:13;3.90;;;3.17;;
59147;SDS011;44930;52.878;6.168;2023-06-05T13:26:39;9.02;;;3.67;;
59147;SDS011;44930;52.878;6.168;2023-06-05T13:29:06;6.90;;;3.13;;
59147;SDS011;44930;52.878;6.168;2023-06-05T13:31:33;4.70;;;3.38;;
59147;SDS011;44930;52.878;6.168;2023-06-05T13:33:59;5.10;;;3.47;;
59147;SDS011;44930;52.878;6.168;2023-06-05T13:36:24;3.97;;;3.28;;
59147;SDS011;44930;52.878;6.168;2023-06-05T13:38:51;6.53;;;3.65;;
59147;SDS011;44930;52.878;6.168;2023-06-05T13:41:16;4.53;;;3.63;;
59147;SDS011;44930;52.878;6.168;2023-06-05T13:43:42;7.45;;;3.65;;
59147;SDS011;44930;52.878;6.168;2023-06-05T13:46:08;4.22;;;3.30;;
59147;SDS011;44930;52.878;6.168;2023-06-05T13:48:33;4.72;;;3.25;;
59147;SDS011;44930;52.878;6.168;2023-06-05T13:50:59;5.28;;;3.28;;
59147;SDS011;44930;52.878;6.168;2023-06-05T13:53:26;7.22;;;3.25;;
59147;SDS011;44930;52.878;6.168;2023-06-05T13:55:52;5.13;;;3.97;;
59147;SDS011;44930;52.878;6.168;2023-06-05T13:58:18;5.00;;;3.58;;
59147;SDS011;44930;52.878;6.168;2023-06-05T14:00:44;4.45;;;3.55;;
59147;SDS011;44930;52.878;6.168;2023-06-05T14:03:09;5.32;;;3.72;;
59147;SDS011;44930;52.878;6.168;2023-06-05T14:05:35;5.05;;;3.47;;
59147;SDS011;44930;52.878;6.168;2023-06-05T14:08:01;6.53;;;4.07;;
59147;SDS011;44930;52.878;6.168;2023-06-05T14:10:27;5.55;;;3.95;;
59147;SDS011;44930;52.878;6.168;2023-06-05T14:12:52;6.85;;;3.92;;
59147;SDS011;44930;52.878;6.168;2023-06-05T14:15:18;4.93;;;3.67;;
59147;SDS011;44930;52.878;6.168;2023-06-05T14:17:48;6.05;;;3.70;;
59147;SDS011;44930;52.878;6.168;2023-06-05T14:20:17;6.70;;;3.65;;
59147;SDS011;44930;52.878;6.168;2023-06-05T14:22:44;6.82;;;3.72;;
59147;SDS011;44930;52.878;6.168;2023-06-05T14:25:09;6.03;;;3.72;;
59147;SDS011;44930;52.878;6.168;2023-06-05T14:27:35;6.85;;;4.07;;
59147;SDS011;44930;52.878;6.168;2023-06-05T14:30:01;5.43;;;4.10;;
59147;SDS011;44930;52.878;6.168;2023-06-05T14:32:27;4.47;;;3.17;;
59147;SDS011;44930;52.878;6.168;2023-06-05T14:34:52;5.45;;;3.20;;
59147;SDS011;44930;52.878;6.168;2023-06-05T14:37:18;8.80;;;4.72;;
59147;SDS011;44930;52.878;6.168;2023-06-05T14:39:44;7.70;;;3.92;;
59147;SDS011;44930;52.878;6.168;2023-06-05T14:42:09;12.27;;;4.80;;
59147;SDS011;44930;52.878;6.168;2023-06-05T14:44:35;6.93;;;3.88;;
59147;SDS011;44930;52.878;6.168;2023-06-05T14:47:00;5.00;;;3.90;;
59147;SDS011;44930;52.878;6.168;2023-06-05T14:49:26;4.75;;;3.63;;
59147;SDS011;44930;52.878;6.168;2023-06-05T14:51:51;5.13;;;3.60;;
59147;SDS011;44930;52.878;6.168;2023-06-05T14:54:17;4.68;;;3.65;;
59147;SDS011;44930;52.878;6.168;2023-06-05T14:56:43;10.48;;;4.68;;
59147;SDS011;44930;52.878;6.168;2023-06-05T14:59:09;7.88;;;4.30;;
59147;SDS011;44930;52.878;6.168;2023-06-05T15:01:35;6.13;;;4.47;;
59147;SDS011;44930;52.878;6.168;2023-06-05T15:04:01;6.95;;;4.38;;
59147;SDS011;44930;52.878;6.168;2023-06-05T15:06:27;7.18;;;4.07;;